Time;durP1;ratioP1;P1;durP2;ratioP2;P2;SDS_P1;SDS_P2;PMS_P1;PMS_P2;Temp;Humidity;BMP_temperature;BMP_pressure;BME280_temperature;BME280_humidity;BME280_pressure;Samples;Min_cycle;Max_cycle;Signal;HPM_P1;HPM_P2
2021/10/18 08:53:17;;;;;;;;;;;;;;;;;;;;;
2021/10/18 08:56:01;;;;;;;;;32.50;30.25;;;;;14.62;59.26;101801.66;4935565;28;75147;-87
2021/10/18 08:59:19;;;;;;;;;;;;;;;;;;;;;
2021/10/18 09:01:59;;;;;;;;;24.00;23.75;;;;;14.88;58.66;101814.78;4941178;28;67424;-85
2021/10/18 09:04:54;;;;;;;;;29.00;27.25;;;;;14.87;58.45;101804.22;4941911;28;45677;-87
2021/10/18 09:07:20;;;;;;;;;29.50;27.50;;;;;14.87;58.33;101805.09;4933601;28;45625;-84
2021/10/18 09:09:54;;;;;;;;;26.50;24.25;;;;;14.80;58.42;101787.44;4948503;28;45433;-85
2021/10/18 09:13:21;;;;;;;;;29.00;27.00;;;;;14.89;58.76;101779.44;4941302;28;45491;-87
2021/10/18 15:22:15;;;;;;;;;9.00;9.00;;;;;19.98;58.25;101673.69;4013918;23;45356;-88
2021/10/18 15:24:40;;;;;;;;;7.00;7.00;;;;;19.91;58.29;101675.63;4944437;28;45823;-85
2021/10/18 15:27:19;;;;;;;;;;;;;;;;;;;;;
2021/10/18 15:29:49;;;;;;;;;6.67;6.00;;;;;19.83;58.61;101675.88;4935098;28;72141;-87
2021/10/18 15:32:14;;;;;;;;;8.00;7.67;;;;;19.86;59.45;101690.03;4935236;28;45558;-86
2021/10/18 15:34:42;;;;;;;;;7.67;7.33;;;;;19.83;58.96;101682.97;4943659;28;45527;-88
2021/10/18 15:37:08;;;;;;;;;9.67;7.33;;;;;19.80;58.83;101675.91;4927541;28;45340;-89
2021/10/18 15:39:40;;;;;;;;;8.00;7.33;;;;;19.78;59.24;101671.53;4927002;28;45432;-89
2021/10/18 15:42:07;;;;;;;;;6.67;5.33;;;;;19.82;59.55;101690.13;4941492;28;46522;-87
2021/10/18 15:44:33;;;;;;;;;6.67;6.67;;;;;19.82;59.61;101684.78;4941613;28;45475;-89
2021/10/18 15:47:02;;;;;;;;;6.33;6.00;;;;;19.82;59.47;101686.59;4922467;28;45495;-89
2021/10/18 15:49:27;;;;;;;;;7.50;7.50;;;;;19.82;59.45;101694.59;4925155;28;45309;-87
2021/10/18 15:51:53;;;;;;;;;7.33;6.67;;;;;19.78;59.53;101680.47;4942730;28;47799;-88
2021/10/18 15:54:18;;;;;;;;;6.00;6.00;;;;;19.82;59.54;101690.13;4924514;28;45724;-87
2021/10/18 15:56:44;;;;;;;;;5.33;5.33;;;;;19.77;59.64;101680.47;4926399;28;45377;-88
2021/10/18 15:59:11;;;;;;;;;0.33;0.33;;;;;19.78;59.59;101693.81;4921901;28;45521;-88
2021/10/18 16:01:39;;;;;;;;;6.00;6.00;;;;;19.81;59.56;101687.50;4932266;28;48262;-88
2021/10/18 16:04:05;;;;;;;;;8.33;7.67;;;;;19.80;60.11;101693.75;4930065;28;45424;-86
2021/10/18 16:06:39;;;;;;;;;5.33;5.33;;;;;19.77;59.99;101696.50;4945048;28;45388;-89
2021/10/18 16:09:05;;;;;;;;;6.00;6.00;;;;;19.72;60.26;101695.75;4952847;28;45566;-88
2021/10/18 16:11:30;;;;;;;;;8.75;8.50;;;;;19.66;60.10;101701.25;4945714;28;46640;-88
2021/10/18 16:13:56;;;;;;;;;6.75;6.75;;;;;19.67;60.43;101700.34;4945171;28;45346;-86
2021/10/18 16:16:22;;;;;;;;;6.75;6.75;;;;;19.64;60.34;101700.38;4925874;28;45439;-87
2021/10/18 16:18:48;;;;;;;;;6.00;6.00;;;;;19.64;60.32;101711.94;4926743;28;45524;-88
2021/10/18 16:21:15;;;;;;;;;6.00;6.00;;;;;19.56;60.90;101703.25;4924743;28;46957;-90
2021/10/18 16:23:40;;;;;;;;;7.33;7.33;;;;;19.57;60.66;101702.38;4921555;28;45449;-87
2021/10/18 16:26:06;;;;;;;;;6.33;6.00;;;;;19.53;60.80;101717.56;4935276;28;45437;-88
2021/10/18 16:28:32;;;;;;;;;6.67;6.67;;;;;19.43;61.04;101700.00;4925561;28;45545;-86
2021/10/18 16:30:57;;;;;;;;;6.00;5.33;;;;;19.41;60.85;101709.00;4929685;28;46712;-86
2021/10/18 16:33:23;;;;;;;;;6.00;6.00;;;;;19.41;60.66;101717.03;4924874;28;45445;-84
2021/10/18 16:35:49;;;;;;;;;6.00;6.00;;;;;19.37;61.37;101716.19;4944022;28;45290;-86
2021/10/18 16:38:14;;;;;;;;;6.00;6.00;;;;;19.34;61.16;101717.16;4923707;28;45775;-88
2021/10/18 16:40:41;;;;;;;;;6.00;6.00;;;;;19.31;61.22;101722.56;4921995;28;46413;-87
2021/10/18 16:43:09;;;;;;;;;5.33;5.33;;;;;19.28;61.45;101719.13;4923759;28;45472;-90
2021/10/18 16:45:35;;;;;;;;;7.00;7.00;;;;;19.25;61.40;101716.53;4920352;28;45338;-87
2021/10/18 16:48:06;;;;;;;;;7.50;6.75;;;;;19.24;61.24;101718.28;4923821;28;45621;-87
2021/10/18 16:50:31;;;;;;;;;7.67;6.67;;;;;19.23;62.06;101716.53;4941360;28;45512;-88
2021/10/18 16:57:26;;;;;;;;;8.67;7.00;;;;;19.17;61.88;101736.25;4879846;29;45302;-89
2021/10/18 17:03:19;;;;;;;;;8.00;5.67;;;;;19.05;62.38;101724.97;4811684;29;45515;-90
2021/10/18 17:05:47;;;;;;;;;7.67;7.67;;;;;19.01;62.63;101712.66;4810605;29;45515;-90
2021/10/18 17:08:26;;;;;;;;;8.50;7.00;;;;;19.00;62.63;101730.41;4852380;29;45318;-89
2021/10/18 17:11:30;;;;;;;;;5.00;5.00;;;;;19.06;62.66;101732.06;4856829;29;45482;-87
2021/10/18 17:21:02;;;;;;;;;10.67;8.00;;;;;18.96;62.65;101712.75;4818013;29;45509;-84
2021/10/18 18:48:23;;;;;;;;;9.25;9.25;;;;;18.47;66.41;101743.09;4937826;28;45350;-84
2021/10/18 20:27:55;;;;;;;;;;;;;;;;;;;;;
2021/10/18 20:37:03;;;;;;;;;14.00;13.50;;;;;17.85;70.36;101736.31;4736744;29;45622;-82
2021/10/18 20:43:58;;;;;;;;;;;;;;;;;;;;;
2021/10/18 20:50:29;;;;;;;;;;;;;;;;;;;;;
2021/10/18 20:56:40;;;;;;;;;14.25;14.25;;;;;17.81;70.89;101707.97;4719897;29;45616;-82
2021/10/18 21:03:26;;;;;;;;;;;;;;;;;;;;;
2021/10/18 21:10:21;;;;;;;;;10.75;10.75;;;;;17.84;70.89;101715.88;4810637;29;45747;-82
2021/10/18 21:20:40;;;;;;;;;;;;;;;;;;;;;
2021/10/18 21:40:06;;;;;;;;;19.00;18.00;;;;;17.77;71.89;101703.53;4776478;29;45608;-81
2021/10/18 22:01:42;;;;;;;;;;;;;;;;;;;;;
2021/10/18 22:22:33;;;;;;;;;16.50;15.50;;;;;17.94;70.32;101679.31;4859631;29;45598;-82
2021/10/18 22:26:22;;;;;;;;;;;;;;;;;;;;;
2021/10/18 22:32:42;;;;;;;;;15.25;13.75;;;;;18.00;69.96;101663.19;4818166;29;45737;-82
2021/10/18 22:35:09;;;;;;;;;12.00;11.50;;;;;18.05;70.41;101665.78;4901417;28;45623;-81
2021/10/18 22:55:26;;;;;;;;;19.25;16.00;;;;;18.08;70.38;101652.38;4859787;29;45987;-82
2021/10/18 22:58:33;;;;;;;;;12.33;12.00;;;;;18.14;70.17;101657.56;4868492;28;45740;-82
2021/10/18 23:01:35;;;;;;;;;;;;;;;;;;;;;
